Time;durP1;ratioP1;P1;durP2;ratioP2;P2;SDS_P1;SDS_P2;PMS_P1;PMS_P2;Temp;Humidity;BMP_temperature;BMP_pressure;BME280_temperature;BME280_humidity;BME280_pressure;Samples;Min_cycle;Max_cycle;Signal;HPM_P1;HPM_P2
2022/08/09 00:00:23;;;;;;;5.05;2.70;;;21.50;64.90;;;;;;5050112;28;20041;-68
2022/08/09 00:02:49;;;;;;;5.28;3.00;;;21.40;64.70;;;;;;5034409;28;20353;-68
2022/08/09 00:05:15;;;;;;;5.50;3.28;;;21.50;64.90;;;;;;5050093;28;20411;-68
2022/08/09 00:07:42;;;;;;;7.07;3.47;;;21.50;64.90;;;;;;5052382;28;20032;-68
2022/08/09 00:10:08;;;;;;;3.60;2.65;;;21.50;65.00;;;;;;5048117;28;20056;-68
2022/08/09 00:12:34;;;;;;;5.63;2.70;;;21.50;65.00;;;;;;5051279;28;20087;-68
2022/08/09 00:15:00;;;;;;;6.95;3.15;;;21.50;65.10;;;;;;5045852;28;20033;-68
2022/08/09 00:17:25;;;;;;;4.60;3.15;;;21.50;65.10;;;;;;5052009;28;20113;-69
2022/08/09 00:19:51;;;;;;;5.22;3.10;;;21.50;65.10;;;;;;5051354;28;20033;-69
2022/08/09 00:22:16;;;;;;;5.20;3.10;;;21.40;65.30;;;;;;5054288;28;20049;-68
2022/08/09 00:24:42;;;;;;;7.95;3.95;;;21.40;65.30;;;;;;5050782;28;20025;-68
2022/08/09 00:27:07;;;;;;;4.95;3.10;;;21.40;65.40;;;;;;5051542;28;20096;-68
2022/08/09 00:29:33;;;;;;;5.13;2.90;;;21.40;65.50;;;;;;5050629;28;20029;-67
2022/08/09 00:31:58;;;;;;;7.15;3.40;;;21.40;66.10;;;;;;5050794;28;20017;-68
2022/08/09 00:34:24;;;;;;;5.65;3.33;;;21.40;65.60;;;;;;5050802;28;20113;-68
2022/08/09 00:36:49;;;;;;;4.85;3.28;;;21.40;65.70;;;;;;5033531;28;20045;-68
2022/08/09 00:39:16;;;;;;;5.28;3.28;;;21.40;65.70;;;;;;5032370;28;20021;-68
2022/08/09 00:41:42;;;;;;;8.25;3.10;;;21.40;65.80;;;;;;5049615;28;20052;-68
2022/08/09 00:44:08;;;;;;;4.78;3.28;;;21.40;65.90;;;;;;5037443;28;20124;-68
2022/08/09 00:46:33;;;;;;;5.35;3.40;;;21.40;66.00;;;;;;5050631;28;20178;-68
2022/08/09 00:48:59;;;;;;;6.05;3.35;;;21.40;66.00;;;;;;5032342;28;20017;-68
2022/08/09 00:51:25;;;;;;;5.13;3.10;;;21.40;66.00;;;;;;5049790;28;20055;-68
2022/08/09 00:53:51;;;;;;;5.43;3.30;;;21.40;66.00;;;;;;5049862;28;20024;-68
2022/08/09 00:56:17;;;;;;;5.13;3.17;;;21.40;66.10;;;;;;5051416;28;20017;-68
2022/08/09 00:58:42;;;;;;;6.93;3.70;;;21.40;66.00;;;;;;5049830;28;20037;-69
2022/08/09 01:01:17;;;;;;;5.28;3.28;;;21.40;66.10;;;;;;5049796;28;20476;-68
2022/08/09 01:03:54;;;;;;;7.82;3.05;;;21.40;66.10;;;;;;5049290;28;20262;-68
2022/08/09 01:06:29;;;;;;;6.20;3.13;;;21.40;66.10;;;;;;5051294;28;20060;-68
2022/08/09 01:09:21;;;;;;;4.82;3.53;;;21.40;66.30;;;;;;5049342;28;20475;-68
2022/08/09 01:11:53;;;;;;;5.15;3.22;;;21.40;66.30;;;;;;5041906;28;20032;-68
2022/08/09 01:14:36;;;;;;;8.27;3.70;;;21.40;66.30;;;;;;5049116;28;20021;-68
2022/08/09 01:17:21;;;;;;;4.88;2.92;;;21.30;66.40;;;;;;5050647;28;20124;-68
2022/08/09 01:19:56;;;;;;;6.60;3.17;;;21.30;66.40;;;;;;5046169;28;20060;-68
2022/08/09 01:22:53;;;;;;;10.38;4.35;;;21.30;66.50;;;;;;5050769;28;20120;-68
2022/08/09 01:25:54;;;;;;;4.65;3.00;;;21.30;66.50;;;;;;5047398;28;20337;-68
2022/08/09 01:28:23;;;;;;;4.90;3.28;;;21.30;66.40;;;;;;5050600;28;20021;-68
2022/08/09 01:30:50;;;;;;;6.07;3.47;;;21.30;66.50;;;;;;5050840;28;20029;-68
2022/08/09 01:33:17;;;;;;;6.05;3.40;;;21.30;66.70;;;;;;5049481;28;20033;-68
2022/08/09 01:35:52;;;;;;;6.47;3.60;;;21.30;66.80;;;;;;5050804;28;20098;-68
2022/08/09 01:38:23;;;;;;;5.40;3.08;;;21.30;66.80;;;;;;5050617;28;20121;-68
2022/08/09 01:41:10;;;;;;;4.18;3.05;;;21.30;66.90;;;;;;5050682;28;20444;-67
2022/08/09 01:43:38;;;;;;;5.22;2.97;;;21.30;66.80;;;;;;5049152;28;20485;-68
2022/08/09 01:46:05;;;;;;;3.63;3.00;;;21.30;67.00;;;;;;5050043;28;20035;-67
2022/08/09 01:48:33;;;;;;;5.72;3.03;;;21.30;67.00;;;;;;5048924;28;20028;-67
2022/08/09 01:51:00;;;;;;;5.93;3.42;;;21.30;67.10;;;;;;5049757;28;20040;-68
2022/08/09 01:53:27;;;;;;;5.38;3.78;;;21.30;67.10;;;;;;5051826;28;20056;-68
2022/08/09 01:55:55;;;;;;;4.18;3.03;;;21.20;67.30;;;;;;5053731;28;20037;-67
2022/08/09 01:58:21;;;;;;;5.68;3.33;;;21.20;67.30;;;;;;5053061;28;20060;-68
2022/08/09 02:00:48;;;;;;;6.25;3.10;;;21.20;67.30;;;;;;5053135;28;20511;-68
2022/08/09 02:03:15;;;;;;;4.55;3.03;;;21.20;67.40;;;;;;5053632;28;20575;-67
2022/08/09 02:05:43;;;;;;;4.43;3.17;;;21.20;67.50;;;;;;5053216;28;20587;-69
2022/08/09 02:08:12;;;;;;;4.47;3.05;;;21.20;67.60;;;;;;5053526;28;20472;-68
2022/08/09 02:10:40;;;;;;;4.45;3.35;;;21.10;67.70;;;;;;5052883;28;20025;-67
2022/08/09 02:13:11;;;;;;;5.25;3.30;;;21.10;67.70;;;;;;5053356;28;20072;-67
2022/08/09 02:15:41;;;;;;;5.07;3.40;;;21.10;67.80;;;;;;5053502;28;20063;-67
2022/08/09 02:18:07;;;;;;;5.15;3.00;;;21.10;67.90;;;;;;5053171;28;20112;-67
2022/08/09 02:20:40;;;;;;;4.95;3.65;;;21.10;67.90;;;;;;5053148;28;20070;-68
2022/08/09 02:23:28;;;;;;;7.43;3.85;;;21.10;68.00;;;;;;5051989;28;20472;-68
2022/08/09 02:25:56;;;;;;;5.18;3.63;;;21.10;68.10;;;;;;5053734;28;20090;-68
2022/08/09 02:28:36;;;;;;;5.40;3.60;;;21.10;68.10;;;;;;5051263;28;20025;-68
2022/08/09 02:31:05;;;;;;;5.47;3.35;;;21.10;68.20;;;;;;5033957;28;20087;-68
2022/08/09 02:33:36;;;;;;;5.45;3.42;;;21.10;68.20;;;;;;5048231;28;20252;-68
2022/08/09 02:36:05;;;;;;;6.68;3.72;;;21.00;68.30;;;;;;5053788;28;20439;-68
2022/08/09 02:38:40;;;;;;;4.53;3.42;;;21.00;68.30;;;;;;5050844;28;20044;-68
2022/08/09 02:41:09;;;;;;;4.68;3.42;;;21.00;68.40;;;;;;5053600;28;20033;-68
2022/08/09 02:43:36;;;;;;;4.30;3.30;;;21.00;68.40;;;;;;5046867;28;20037;-67
2022/08/09 02:46:04;;;;;;;5.75;4.15;;;21.00;68.50;;;;;;5050358;28;20086;-67
2022/08/09 02:48:33;;;;;;;5.55;3.55;;;21.10;68.60;;;;;;5049616;28;20031;-68
2022/08/09 02:51:00;;;;;;;5.15;3.20;;;21.00;68.50;;;;;;5026498;28;20021;-67
2022/08/09 02:53:31;;;;;;;6.05;2.97;;;21.00;68.70;;;;;;5051022;28;20484;-66
2022/08/09 02:56:00;;;;;;;5.65;3.47;;;21.00;68.70;;;;;;5044201;28;20040;-66
2022/08/09 02:58:30;;;;;;;3.67;3.17;;;21.00;68.80;;;;;;5057369;28;20379;-66
2022/08/09 03:00:57;;;;;;;4.95;3.30;;;21.00;68.90;;;;;;5048501;28;20499;-67
2022/08/09 03:03:24;;;;;;;5.53;3.65;;;21.00;68.90;;;;;;5051948;28;20021;-67
2022/08/09 03:05:51;;;;;;;5.50;3.40;;;21.00;69.00;;;;;;5050942;28;20072;-67
2022/08/09 03:08:20;;;;;;;4.85;3.10;;;21.00;69.10;;;;;;5051824;28;20024;-66
2022/08/09 03:10:48;;;;;;;6.38;3.60;;;21.00;69.20;;;;;;5052004;28;20029;-63
2022/08/09 03:13:15;;;;;;;6.40;3.50;;;21.00;69.30;;;;;;5052519;28;20033;-63
2022/08/09 03:15:41;;;;;;;5.72;3.63;;;21.00;69.30;;;;;;5052620;28;20055;-63
2022/08/09 03:18:08;;;;;;;5.07;3.75;;;21.00;69.40;;;;;;5051789;28;20060;-63
2022/08/09 03:20:36;;;;;;;5.53;4.07;;;20.90;69.50;;;;;;5051925;28;20455;-63
2022/08/09 03:23:03;;;;;;;5.97;3.17;;;20.90;69.40;;;;;;5052302;28;20098;-63
2022/08/09 03:25:30;;;;;;;6.20;3.22;;;20.90;69.60;;;;;;5051698;28;20091;-63
2022/08/09 03:27:58;;;;;;;6.00;3.58;;;20.90;69.60;;;;;;5052012;28;20055;-63
2022/08/09 03:30:24;;;;;;;6.32;3.40;;;20.90;69.70;;;;;;5052609;28;20032;-63
2022/08/09 03:32:52;;;;;;;5.90;3.25;;;20.90;69.70;;;;;;5052598;28;20486;-63
2022/08/09 03:35:18;;;;;;;8.32;3.60;;;20.90;69.70;;;;;;5052503;28;20124;-63
2022/08/09 03:37:44;;;;;;;5.43;3.80;;;20.90;69.70;;;;;;5051929;28;20054;-64
2022/08/09 03:40:11;;;;;;;5.95;3.30;;;20.90;69.70;;;;;;5040810;28;20037;-63
2022/08/09 03:42:36;;;;;;;5.88;3.20;;;20.80;69.80;;;;;;5050258;28;20108;-64
2022/08/09 03:45:03;;;;;;;5.68;3.67;;;20.90;70.00;;;;;;5051542;28;20186;-64
2022/08/09 03:47:28;;;;;;;5.00;3.80;;;20.90;70.00;;;;;;5050054;28;20028;-64
2022/08/09 03:49:55;;;;;;;4.30;3.35;;;20.80;70.00;;;;;;5051775;28;20029;-64
2022/08/09 03:52:22;;;;;;;9.43;3.72;;;20.80;70.10;;;;;;5047672;28;20052;-64
2022/08/09 03:54:51;;;;;;;6.80;3.63;;;20.80;70.20;;;;;;5044458;28;20037;-64
2022/08/09 03:57:17;;;;;;;6.88;3.50;;;20.80;70.40;;;;;;5051543;28;20047;-64
2022/08/09 03:59:43;;;;;;;5.53;3.50;;;20.80;71.00;;;;;;5050928;28;20029;-64
2022/08/09 04:02:09;;;;;;;4.72;3.10;;;20.70;70.50;;;;;;5050859;28;20021;-64
2022/08/09 04:04:35;;;;;;;5.78;3.78;;;20.70;70.60;;;;;;5051147;28;20025;-65
2022/08/09 04:07:02;;;;;;;5.15;3.75;;;20.70;70.50;;;;;;5050509;28;20090;-64
2022/08/09 04:09:28;;;;;;;5.47;3.15;;;20.80;70.60;;;;;;5050851;28;20033;-64
2022/08/09 04:12:02;;;;;;;5.03;3.40;;;20.80;70.60;;;;;;5051769;28;20053;-63
2022/08/09 04:14:28;;;;;;;7.15;3.78;;;20.80;70.60;;;;;;5050388;28;20025;-64
2022/08/09 04:16:54;;;;;;;7.10;3.53;;;20.70;70.60;;;;;;5050999;28;20037;-64
2022/08/09 04:19:19;;;;;;;4.75;3.50;;;20.70;70.70;;;;;;5050797;28;20031;-65
2022/08/09 04:21:45;;;;;;;6.45;3.85;;;20.80;70.70;;;;;;5051781;28;20029;-66
2022/08/09 04:24:11;;;;;;;6.18;3.88;;;20.80;70.70;;;;;;5050740;28;20028;-65
2022/08/09 04:26:36;;;;;;;5.53;3.30;;;20.80;70.70;;;;;;5051826;28;20036;-67
2022/08/09 04:29:02;;;;;;;5.18;3.30;;;20.80;70.70;;;;;;5032008;28;20021;-68
2022/08/09 04:31:27;;;;;;;6.00;3.40;;;20.80;70.80;;;;;;5050405;28;20033;-71
2022/08/09 04:33:53;;;;;;;4.15;3.22;;;20.80;70.80;;;;;;5050127;28;20017;-68
2022/08/09 04:36:19;;;;;;;4.50;3.00;;;20.80;70.80;;;;;;5052011;28;20027;-69
2022/08/09 04:38:45;;;;;;;8.10;3.40;;;20.80;70.90;;;;;;5050518;28;20029;-68
2022/08/09 04:41:10;;;;;;;6.63;3.58;;;20.90;71.00;;;;;;5035268;28;20041;-70
2022/08/09 04:43:36;;;;;;;4.75;3.15;;;20.90;71.00;;;;;;5050251;28;20032;-66
2022/08/09 04:46:01;;;;;;;7.80;4.07;;;20.90;71.00;;;;;;5041227;28;20052;-68
2022/08/09 04:48:27;;;;;;;4.43;3.50;;;20.80;71.00;;;;;;5050577;28;20021;-70
2022/08/09 04:50:53;;;;;;;5.57;3.50;;;20.80;71.10;;;;;;5050550;28;20035;-68
2022/08/09 04:53:18;;;;;;;6.18;3.30;;;20.80;71.20;;;;;;5050407;28;20036;-67
2022/08/09 04:55:44;;;;;;;7.47;3.58;;;20.90;71.30;;;;;;5051150;28;20548;-68
2022/08/09 04:58:09;;;;;;;7.38;3.60;;;20.90;71.30;;;;;;5051161;28;20029;-68
2022/08/09 05:00:35;;;;;;;4.43;3.13;;;20.90;71.30;;;;;;5032298;28;20124;-68
2022/08/09 05:03:02;;;;;;;4.88;3.83;;;20.80;71.40;;;;;;5051123;28;20040;-68
2022/08/09 05:05:28;;;;;;;4.97;3.45;;;20.90;71.50;;;;;;5050494;28;20123;-68
2022/08/09 05:07:54;;;;;;;8.38;3.97;;;20.90;71.60;;;;;;5049142;28;20117;-69
2022/08/09 05:10:19;;;;;;;5.35;3.80;;;20.80;71.70;;;;;;5050712;28;20032;-68
2022/08/09 05:12:45;;;;;;;5.93;4.05;;;20.80;71.80;;;;;;5051299;28;20025;-69
2022/08/09 05:15:10;;;;;;;6.53;4.68;;;20.80;71.80;;;;;;5050471;28;20025;-68
2022/08/09 05:17:36;;;;;;;7.15;4.13;;;20.80;71.90;;;;;;5049493;28;20028;-65
2022/08/09 05:20:02;;;;;;;10.45;4.53;;;20.80;71.90;;;;;;5049731;28;20119;-65
2022/08/09 05:22:28;;;;;;;7.22;4.25;;;20.80;71.90;;;;;;5051557;28;20414;-65
2022/08/09 05:24:53;;;;;;;7.78;4.25;;;20.80;72.10;;;;;;5050664;28;20033;-65
2022/08/09 05:27:19;;;;;;;5.65;4.05;;;20.80;72.10;;;;;;5050968;28;20021;-65
2022/08/09 05:29:44;;;;;;;7.82;3.83;;;20.80;72.30;;;;;;5053250;28;20025;-65
2022/08/09 05:32:10;;;;;;;5.38;4.13;;;20.80;72.30;;;;;;5055047;28;20086;-65
2022/08/09 05:34:35;;;;;;;9.20;4.47;;;20.80;72.30;;;;;;5053428;28;20082;-64
2022/08/09 05:37:04;;;;;;;7.32;4.03;;;20.80;72.40;;;;;;5047216;28;20021;-63
2022/08/09 05:39:29;;;;;;;7.07;4.13;;;20.90;72.40;;;;;;5045936;28;20119;-63
2022/08/09 05:41:55;;;;;;;6.35;4.13;;;20.90;72.30;;;;;;5054565;28;20186;-64
2022/08/09 05:44:21;;;;;;;5.53;4.07;;;20.90;72.20;;;;;;5053943;28;20033;-64
2022/08/09 05:46:46;;;;;;;8.02;4.65;;;20.90;72.30;;;;;;5054844;28;20025;-64
2022/08/09 05:49:12;;;;;;;7.20;4.30;;;21.00;72.30;;;;;;5053851;28;20025;-64
2022/08/09 05:51:38;;;;;;;6.22;4.00;;;21.10;72.10;;;;;;5053643;28;20495;-64
2022/08/09 05:54:03;;;;;;;6.22;4.30;;;21.10;72.00;;;;;;5053023;28;20017;-64
2022/08/09 05:56:29;;;;;;;6.00;3.83;;;21.10;71.90;;;;;;5054718;28;20021;-64
2022/08/09 05:58:58;;;;;;;7.25;3.90;;;21.10;72.00;;;;;;5053786;28;20518;-65
2022/08/09 06:01:25;;;;;;;7.07;4.32;;;21.10;71.80;;;;;;5053670;28;20124;-64
2022/08/09 06:03:51;;;;;;;6.53;3.90;;;21.20;71.80;;;;;;5052730;28;20060;-64
2022/08/09 06:06:16;;;;;;;8.85;4.53;;;21.20;71.60;;;;;;5053586;28;20134;-64
2022/08/09 06:08:42;;;;;;;6.25;4.40;;;21.20;71.70;;;;;;5052850;28;20560;-65
2022/08/09 06:11:08;;;;;;;6.35;3.72;;;21.20;71.50;;;;;;5053991;28;20036;-64
2022/08/09 06:13:34;;;;;;;6.32;4.00;;;21.20;71.50;;;;;;5053308;28;20044;-64
2022/08/09 06:16:01;;;;;;;8.48;4.72;;;21.20;71.60;;;;;;5068526;28;20041;-64
2022/08/09 06:18:26;;;;;;;5.18;3.45;;;21.20;71.50;;;;;;5051785;28;20032;-64
2022/08/09 06:20:56;;;;;;;7.57;3.38;;;21.30;71.40;;;;;;5048198;28;20033;-65
2022/08/09 06:23:22;;;;;;;8.45;4.40;;;21.30;71.50;;;;;;5053146;28;20039;-64
2022/08/09 06:25:49;;;;;;;4.47;3.70;;;21.40;71.60;;;;;;5052871;28;20068;-64
2022/08/09 06:28:14;;;;;;;5.80;4.05;;;21.40;71.00;;;;;;5053942;28;20103;-64
2022/08/09 06:30:41;;;;;;;5.65;3.88;;;21.50;70.70;;;;;;5052396;28;20116;-64
2022/08/09 06:33:07;;;;;;;6.85;4.03;;;21.50;70.90;;;;;;5053606;28;20065;-64
2022/08/09 06:35:33;;;;;;;7.15;4.22;;;21.60;70.90;;;;;;5052444;28;20021;-64
2022/08/09 06:37:59;;;;;;;8.27;4.25;;;21.60;70.50;;;;;;5052690;28;20415;-64
2022/08/09 06:40:25;;;;;;;9.07;3.97;;;21.60;70.30;;;;;;5052566;28;20040;-64
2022/08/09 06:42:50;;;;;;;11.00;4.45;;;21.70;70.40;;;;;;5050440;28;20136;-64
2022/08/09 06:45:16;;;;;;;7.35;4.25;;;21.70;70.20;;;;;;5052709;28;20021;-64
2022/08/09 06:47:42;;;;;;;7.03;3.55;;;21.80;70.20;;;;;;5053237;28;20075;-64
2022/08/09 06:50:09;;;;;;;5.10;3.30;;;21.80;69.70;;;;;;5052107;28;20471;-64
2022/08/09 06:52:34;;;;;;;8.27;3.45;;;21.80;69.80;;;;;;5046081;28;20021;-64
2022/08/09 06:55:00;;;;;;;7.03;4.75;;;21.90;69.90;;;;;;5049222;28;20383;-65
2022/08/09 06:57:25;;;;;;;6.78;3.72;;;22.00;69.60;;;;;;5051784;28;20463;-65
2022/08/09 06:59:52;;;;;;;6.00;3.85;;;22.00;69.70;;;;;;5044609;28;20400;-65
2022/08/09 07:02:18;;;;;;;11.13;5.25;;;22.10;69.30;;;;;;5052559;28;20036;-65
2022/08/09 07:04:44;;;;;;;8.23;4.78;;;22.10;68.90;;;;;;5050847;28;20048;-65
2022/08/09 07:07:09;;;;;;;7.13;4.10;;;22.10;68.90;;;;;;5049939;28;20021;-64
2022/08/09 07:09:35;;;;;;;7.88;3.30;;;22.10;68.80;;;;;;5051428;28;20515;-63
2022/08/09 07:12:01;;;;;;;5.40;3.40;;;22.20;68.90;;;;;;5050193;28;20032;-63
2022/08/09 07:14:26;;;;;;;8.02;4.07;;;22.20;68.70;;;;;;5049402;28;20023;-64
2022/08/09 07:16:52;;;;;;;6.03;3.28;;;22.30;68.30;;;;;;5052394;28;20491;-64
2022/08/09 07:19:17;;;;;;;5.22;3.58;;;22.30;68.40;;;;;;5041162;28;20399;-63
2022/08/09 07:21:44;;;;;;;8.10;3.22;;;22.30;68.20;;;;;;5052326;28;20104;-63
2022/08/09 07:24:09;;;;;;;7.15;3.22;;;22.40;67.60;;;;;;5051118;28;20468;-63
2022/08/09 07:26:35;;;;;;;5.68;2.83;;;22.40;67.30;;;;;;5052516;28;20029;-65
2022/08/09 07:29:03;;;;;;;3.88;3.00;;;22.50;67.20;;;;;;5050497;28;20032;-63
2022/08/09 07:31:29;;;;;;;5.10;3.33;;;22.50;67.10;;;;;;5050820;28;20035;-64
2022/08/09 07:33:55;;;;;;;4.97;3.30;;;22.60;66.80;;;;;;5050993;28;20107;-63
2022/08/09 07:36:20;;;;;;;4.25;3.00;;;22.60;66.40;;;;;;5050878;28;20037;-63
2022/08/09 07:38:46;;;;;;;4.47;3.08;;;22.70;66.40;;;;;;5050777;28;20032;-63
2022/08/09 07:41:11;;;;;;;5.07;3.10;;;22.70;66.40;;;;;;5050141;28;20055;-63
2022/08/09 07:43:37;;;;;;;4.70;3.20;;;22.70;65.80;;;;;;5048886;28;20017;-64
2022/08/09 07:46:03;;;;;;;6.97;3.75;;;22.70;65.80;;;;;;5051505;28;20106;-63
2022/08/09 07:48:30;;;;;;;5.13;3.35;;;22.70;65.50;;;;;;5049119;28;20036;-63
2022/08/09 07:50:59;;;;;;;5.95;3.10;;;22.70;65.50;;;;;;5051156;28;20450;-63
2022/08/09 07:53:25;;;;;;;7.03;3.50;;;22.70;65.30;;;;;;5049613;28;20048;-63
2022/08/09 07:55:50;;;;;;;5.25;3.08;;;22.70;65.40;;;;;;5051115;28;20408;-63
2022/08/09 07:58:16;;;;;;;7.50;3.83;;;22.80;65.30;;;;;;5051487;28;20060;-63
2022/08/09 08:00:41;;;;;;;8.20;3.38;;;22.80;64.50;;;;;;5050066;28;20036;-63
2022/08/09 08:03:07;;;;;;;4.70;2.85;;;22.80;64.70;;;;;;5050444;28;20032;-63
2022/08/09 08:05:33;;;;;;;9.10;3.05;;;22.80;64.40;;;;;;5050253;28;20072;-63
2022/08/09 08:08:01;;;;;;;6.07;2.55;;;22.90;64.40;;;;;;5049880;28;20064;-63
2022/08/09 08:10:27;;;;;;;4.90;3.47;;;22.90;64.20;;;;;;5051129;28;20020;-63
2022/08/09 08:12:53;;;;;;;5.53;3.30;;;23.00;64.10;;;;;;5052011;28;20029;-63
2022/08/09 08:15:19;;;;;;;4.57;2.80;;;23.10;63.90;;;;;;5050402;28;20025;-63
2022/08/09 08:17:52;;;;;;;4.45;3.05;;;23.10;63.30;;;;;;5048351;28;20025;-64
2022/08/09 08:20:25;;;;;;;6.13;3.35;;;23.10;63.20;;;;;;5049526;28;20037;-63
2022/08/09 08:22:51;;;;;;;5.70;3.05;;;23.20;63.20;;;;;;5051284;28;20102;-63
2022/08/09 08:25:17;;;;;;;4.78;3.28;;;23.20;63.00;;;;;;5052123;28;20468;-64
2022/08/09 08:27:42;;;;;;;5.70;3.50;;;23.20;62.30;;;;;;5051317;28;20032;-63
2022/08/09 08:30:10;;;;;;;8.75;3.60;;;23.30;62.10;;;;;;5050247;28;20025;-63
2022/08/09 08:32:35;;;;;;;7.72;2.67;;;23.30;61.70;;;;;;5051381;28;20021;-63
2022/08/09 08:35:01;;;;;;;6.63;2.70;;;23.30;61.40;;;;;;5050730;28;20033;-63
2022/08/09 08:37:28;;;;;;;5.57;2.58;;;23.30;61.30;;;;;;5051672;28;20078;-64
2022/08/09 08:39:53;;;;;;;5.55;2.72;;;23.40;61.20;;;;;;5051284;28;20037;-63
2022/08/09 08:42:20;;;;;;;7.18;2.90;;;23.40;60.80;;;;;;5051543;28;20017;-65
2022/08/09 08:44:49;;;;;;;5.20;3.00;;;23.30;60.70;;;;;;5050836;28;20125;-63
2022/08/09 08:47:15;;;;;;;4.63;2.55;;;23.40;60.90;;;;;;5050896;28;20039;-63
2022/08/09 08:49:41;;;;;;;3.83;2.65;;;23.40;61.00;;;;;;5051032;28;20036;-63
2022/08/09 08:52:07;;;;;;;7.53;3.40;;;23.50;60.70;;;;;;5050550;28;20029;-63
2022/08/09 08:54:34;;;;;;;4.20;2.70;;;23.50;60.10;;;;;;5051067;28;20434;-63
2022/08/09 08:57:00;;;;;;;4.80;2.80;;;23.50;60.20;;;;;;5051216;28;20345;-63
2022/08/09 08:59:25;;;;;;;3.70;2.28;;;23.60;60.40;;;;;;5029687;28;20547;-64
2022/08/09 09:01:52;;;;;;;4.40;2.70;;;23.70;60.60;;;;;;5051173;28;20105;-64
2022/08/09 09:04:19;;;;;;;4.55;3.15;;;23.70;60.10;;;;;;5054802;28;20468;-66
2022/08/09 09:06:47;;;;;;;3.85;2.85;;;23.80;59.50;;;;;;5055037;28;20057;-71
2022/08/09 09:09:15;;;;;;;4.60;2.65;;;23.80;59.60;;;;;;5052626;28;20059;-65
2022/08/09 09:11:41;;;;;;;4.88;2.60;;;23.90;59.10;;;;;;5054547;28;20021;-67
2022/08/09 09:14:20;;;;;;;3.80;2.95;;;23.90;59.30;;;;;;5055076;28;20115;-67
2022/08/09 09:16:46;;;;;;;3.75;2.20;;;24.00;59.20;;;;;;5041089;28;20463;-68
2022/08/09 09:19:12;;;;;;;5.32;2.97;;;24.00;59.00;;;;;;5052896;28;20037;-66
2022/08/09 09:22:01;;;;;;;4.78;2.50;;;24.10;58.50;;;;;;5054598;28;20076;-68
2022/08/09 09:24:48;;;;;;;4.30;2.28;;;24.20;58.50;;;;;;5053119;28;20021;-68
2022/08/09 09:27:16;;;;;;;5.07;2.70;;;24.20;58.50;;;;;;5052358;28;20531;-68
2022/08/09 09:29:43;;;;;;;4.15;3.00;;;24.30;58.80;;;;;;5037888;28;20380;-68
2022/08/09 09:32:10;;;;;;;6.30;2.30;;;24.30;58.00;;;;;;5031446;28;20029;-69
2022/08/09 09:34:37;;;;;;;6.88;2.65;;;24.40;58.40;;;;;;5053369;28;20100;-69
2022/08/09 09:37:05;;;;;;;6.28;2.78;;;24.40;58.00;;;;;;5036487;28;20113;-69
2022/08/09 09:39:31;;;;;;;5.43;2.88;;;24.60;58.00;;;;;;5053057;28;20404;-68
2022/08/09 09:41:57;;;;;;;8.23;2.67;;;24.60;57.20;;;;;;5054635;28;20029;-68
2022/08/09 09:44:32;;;;;;;4.80;2.38;;;24.70;57.70;;;;;;5053377;28;20461;-68
2022/08/09 09:47:07;;;;;;;2.70;2.08;;;24.70;56.90;;;;;;5053818;28;20055;-68
2022/08/09 09:49:33;;;;;;;5.25;2.67;;;24.80;56.70;;;;;;5050354;28;20048;-68
2022/08/09 09:52:04;;;;;;;4.50;2.30;;;24.80;56.10;;;;;;5056851;28;20553;-70
2022/08/09 09:54:38;;;;;;;3.50;2.60;;;24.90;55.80;;;;;;5047843;28;20072;-69
2022/08/09 09:57:20;;;;;;;3.08;2.10;;;25.00;56.00;;;;;;5053582;28;20556;-70
2022/08/09 09:59:48;;;;;;;3.10;2.28;;;25.00;55.50;;;;;;5052610;28;20041;-69
2022/08/09 10:02:16;;;;;;;4.28;2.53;;;25.10;55.30;;;;;;5052788;28;20033;-68
2022/08/09 10:04:42;;;;;;;4.88;2.38;;;25.10;54.70;;;;;;5051974;28;20036;-71
2022/08/09 10:07:26;;;;;;;3.55;2.30;;;25.10;54.80;;;;;;5049559;28;20112;-70
2022/08/09 10:09:54;;;;;;;4.75;2.40;;;25.20;55.10;;;;;;5051034;28;20029;-69
2022/08/09 10:12:32;;;;;;;6.03;2.58;;;25.30;54.60;;;;;;5053231;28;20033;-69
2022/08/09 10:15:16;;;;;;;4.05;2.50;;;25.30;54.40;;;;;;5050337;28;20060;-69
2022/08/09 10:17:45;;;;;;;4.25;2.30;;;25.30;54.40;;;;;;5053259;28;20091;-69
2022/08/09 10:20:18;;;;;;;4.97;2.55;;;25.40;54.40;;;;;;5024513;28;20045;-69
2022/08/09 10:22:44;;;;;;;4.43;2.40;;;25.50;54.30;;;;;;5052042;28;20571;-70
2022/08/09 10:25:10;;;;;;;3.70;2.35;;;25.50;53.80;;;;;;5051251;28;20476;-69
2022/08/09 10:27:36;;;;;;;5.97;2.80;;;25.50;53.80;;;;;;5053814;28;20063;-69
2022/08/09 10:30:03;;;;;;;4.68;2.88;;;25.60;54.10;;;;;;5044276;28;20034;-70
2022/08/09 10:32:30;;;;;;;5.13;3.15;;;25.70;53.70;;;;;;5052584;28;20021;-70
2022/08/09 10:34:55;;;;;;;5.65;2.72;;;25.70;53.60;;;;;;5051037;28;20083;-70
2022/08/09 10:37:23;;;;;;;3.78;2.70;;;25.80;53.70;;;;;;5051734;28;20067;-70
2022/08/09 10:39:49;;;;;;;4.15;3.05;;;25.90;53.00;;;;;;5032654;28;20060;-69
2022/08/09 10:42:15;;;;;;;6.53;2.78;;;25.90;53.30;;;;;;5030433;28;20116;-72
2022/08/09 10:44:45;;;;;;;4.75;2.50;;;25.90;53.00;;;;;;5034305;28;20039;-71
2022/08/09 10:47:21;;;;;;;3.88;2.83;;;25.90;52.60;;;;;;5035068;28;20029;-70
2022/08/09 10:49:58;;;;;;;4.78;3.00;;;25.90;52.60;;;;;;5050367;28;20094;-70
2022/08/09 10:52:39;;;;;;;5.53;2.97;;;26.00;53.20;;;;;;5049043;28;20029;-70
2022/08/09 10:55:27;;;;;;;3.75;3.10;;;26.00;52.90;;;;;;5048845;28;20035;-70
2022/08/09 10:57:54;;;;;;;7.10;2.78;;;26.00;52.50;;;;;;5049409;28;20037;-71
2022/08/09 11:00:41;;;;;;;3.28;2.47;;;26.10;53.10;;;;;;5049796;28;20037;-68
2022/08/09 11:03:22;;;;;;;4.55;2.83;;;26.20;53.40;;;;;;5051885;28;20024;-68
2022/08/09 11:06:17;;;;;;;5.35;2.25;;;26.30;52.50;;;;;;5050802;28;20081;-67
2022/08/09 11:08:44;;;;;;;5.22;2.80;;;26.50;52.30;;;;;;5050641;28;20065;-67
2022/08/09 11:11:10;;;;;;;4.05;2.40;;;26.50;52.60;;;;;;5043097;28;20033;-68
2022/08/09 11:13:36;;;;;;;6.22;2.85;;;26.60;52.00;;;;;;5046440;28;20070;-68
2022/08/09 11:16:39;;;;;;;3.20;2.22;;;26.70;52.00;;;;;;5047650;28;20112;-69
2022/08/09 11:19:06;;;;;;;3.65;2.60;;;26.70;52.00;;;;;;5049851;28;20035;-68
2022/08/09 11:21:52;;;;;;;5.40;2.60;;;26.70;51.70;;;;;;5035022;28;20036;-69
2022/08/09 11:24:21;;;;;;;4.07;2.60;;;26.70;51.80;;;;;;5033817;28;20041;-68
2022/08/09 11:26:49;;;;;;;4.30;2.95;;;26.70;51.60;;;;;;5051315;28;20036;-68
2022/08/09 11:29:52;;;;;;;4.30;2.58;;;26.80;51.70;;;;;;5051814;28;20025;-68
2022/08/09 11:32:43;;;;;;;4.30;2.75;;;26.90;51.60;;;;;;5049928;28;20379;-68
2022/08/09 11:35:18;;;;;;;3.67;2.63;;;26.90;52.00;;;;;;5051181;28;20037;-69
2022/08/09 11:37:46;;;;;;;3.72;2.88;;;27.10;51.00;;;;;;5040178;28;20025;-67
2022/08/09 11:40:15;;;;;;;5.88;2.65;;;27.20;50.80;;;;;;5050258;28;20060;-66
2022/08/09 11:42:45;;;;;;;4.63;2.40;;;27.20;50.20;;;;;;5047573;28;20056;-66
2022/08/09 11:45:28;;;;;;;4.72;2.30;;;27.20;50.10;;;;;;5037581;28;20020;-68
2022/08/09 11:47:57;;;;;;;11.00;2.95;;;27.30;50.60;;;;;;5050198;28;20079;-66
2022/08/09 11:50:23;;;;;;;4.68;2.63;;;27.40;50.50;;;;;;5049086;28;20025;-67
2022/08/09 11:52:58;;;;;;;3.80;2.20;;;27.50;50.40;;;;;;5049841;28;20025;-68
2022/08/09 11:55:33;;;;;;;4.60;2.60;;;27.70;51.20;;;;;;5047609;28;20067;-65
2022/08/09 11:58:22;;;;;;;4.50;2.95;;;27.80;50.10;;;;;;5051054;28;20043;-65
2022/08/09 12:00:56;;;;;;;3.63;2.58;;;27.80;49.50;;;;;;5040465;28;20087;-66
2022/08/09 12:03:23;;;;;;;4.53;2.60;;;27.90;49.10;;;;;;5048725;28;20147;-66
2022/08/09 12:06:07;;;;;;;4.45;2.60;;;27.90;49.20;;;;;;5043506;28;20052;-65
2022/08/09 12:08:32;;;;;;;4.90;2.45;;;27.80;48.80;;;;;;5036415;28;20112;-66
2022/08/09 12:10:59;;;;;;;4.03;2.47;;;27.80;48.70;;;;;;5049211;28;20061;-66
2022/08/09 12:13:38;;;;;;;3.72;2.60;;;27.70;48.70;;;;;;5033350;28;20020;-66
2022/08/09 12:16:27;;;;;;;5.95;2.55;;;27.70;49.00;;;;;;5033136;28;20026;-67
2022/08/09 12:18:53;;;;;;;5.20;2.53;;;27.70;49.40;;;;;;5053171;28;20028;-66
2022/08/09 12:21:34;;;;;;;3.97;2.55;;;27.80;50.10;;;;;;5051556;28;20037;-67
2022/08/09 12:24:02;;;;;;;4.35;2.50;;;27.90;49.20;;;;;;5050590;28;20024;-66
2022/08/09 12:26:43;;;;;;;4.70;2.55;;;27.90;49.40;;;;;;5050605;28;20113;-67
2022/08/09 12:29:15;;;;;;;4.75;2.45;;;27.90;49.00;;;;;;5055790;28;20107;-67
2022/08/09 12:31:42;;;;;;;4.13;2.92;;;27.80;48.90;;;;;;5051759;28;20036;-69
2022/08/09 12:34:09;;;;;;;3.38;2.50;;;27.90;48.70;;;;;;5049904;28;20021;-69
2022/08/09 12:36:49;;;;;;;3.85;2.72;;;27.90;49.40;;;;;;5033252;28;20037;-66
2022/08/09 12:39:14;;;;;;;3.63;2.85;;;27.90;49.10;;;;;;5049517;28;20029;-68
2022/08/09 12:41:40;;;;;;;4.55;2.65;;;27.90;49.50;;;;;;5051697;28;20522;-66
2022/08/09 12:44:07;;;;;;;4.95;2.50;;;27.90;48.90;;;;;;5049208;28;20108;-67
2022/08/09 12:46:33;;;;;;;5.25;2.30;;;27.90;49.50;;;;;;5050606;28;20448;-67
2022/08/09 12:49:02;;;;;;;5.13;2.72;;;27.90;49.20;;;;;;5048752;28;20043;-67
2022/08/09 12:51:27;;;;;;;5.68;2.55;;;27.80;48.40;;;;;;5050941;28;20071;-67
2022/08/09 12:53:59;;;;;;;3.30;2.13;;;27.80;48.90;;;;;;5049722;28;20061;-67